Time;durP1;ratioP1;P1;durP2;ratioP2;P2;SDS_P1;SDS_P2;PMS_P1;PMS_P2;Temp;Humidity;BMP_temperature;BMP_pressure;BME280_temperature;BME280_humidity;BME280_pressure;Samples;Min_cycle;Max_cycle;Signal;HPM_P1;HPM_P2
2022/08/27 00:01:26;;;;;;;17.00;7.80;;;;;;;;;;5073524;28;20037;-84
2022/08/27 00:03:55;;;;;;;14.13;6.68;;;;;;;;;;5080953;28;20032;-75
2022/08/27 00:06:22;;;;;;;11.95;7.50;;;;;;;;;;5054842;28;20025;-75
2022/08/27 00:08:49;;;;;;;12.60;6.95;;;;;;;;;;5061784;28;20079;-80
2022/08/27 00:11:16;;;;;;;12.43;6.90;;;;;;;;;;5076168;28;20029;-81
2022/08/27 00:13:42;;;;;;;12.82;7.45;;;;;;;;;;5079233;28;20231;-78
2022/08/27 00:16:10;;;;;;;13.73;7.07;;;;;;;;;;5058049;28;20039;-80
2022/08/27 00:18:37;;;;;;;16.40;10.18;;;;;;;;;;5055551;28;20036;-75
2022/08/27 00:21:03;;;;;;;16.15;8.80;;;;;;;;;;5072923;28;20031;-76
2022/08/27 00:23:30;;;;;;;16.42;8.75;;;;;;;;;;5054645;28;20029;-79
2022/08/27 00:25:56;;;;;;;16.30;8.20;;;;;;;;;;5065553;28;20111;-83
2022/08/27 00:28:22;;;;;;;18.25;8.50;;;;;;;;;;5060313;28;20028;-81
2022/08/27 00:30:49;;;;;;;18.75;7.25;;;;;;;;;;5054845;28;20020;-87
2022/08/27 00:33:15;;;;;;;19.50;7.38;;;;;;;;;;5042295;28;20478;-76
2022/08/27 00:35:41;;;;;;;16.60;6.32;;;;;;;;;;5060840;28;20091;-76
2022/08/27 00:38:08;;;;;;;11.35;6.28;;;;;;;;;;5072413;28;20094;-76
2022/08/27 00:40:34;;;;;;;16.13;7.43;;;;;;;;;;5059875;28;20048;-79
2022/08/27 00:43:02;;;;;;;16.58;7.28;;;;;;;;;;5064074;28;20116;-85
2022/08/27 00:45:28;;;;;;;9.77;6.43;;;;;;;;;;5057282;28;20025;-86
2022/08/27 00:47:56;;;;;;;15.02;7.00;;;;;;;;;;5070229;28;20386;-80
2022/08/27 00:50:31;;;;;;;17.48;7.28;;;;;;;;;;5072730;28;20508;-84
2022/08/27 00:52:59;;;;;;;12.32;7.63;;;;;;;;;;5060970;28;20056;-81
2022/08/27 00:55:27;;;;;;;15.10;6.90;;;;;;;;;;5058291;28;20021;-76
2022/08/27 00:58:01;;;;;;;17.38;7.55;;;;;;;;;;5062577;28;20119;-83
2022/08/27 01:00:27;;;;;;;12.50;6.72;;;;;;;;;;5055615;28;20025;-76
2022/08/27 01:02:54;;;;;;;15.90;7.25;;;;;;;;;;5056542;28;20069;-84
2022/08/27 01:05:21;;;;;;;15.57;7.28;;;;;;;;;;5065351;28;20029;-83
2022/08/27 01:07:49;;;;;;;16.95;7.05;;;;;;;;;;5042957;28;20079;-78
2022/08/27 01:10:16;;;;;;;17.20;6.40;;;;;;;;;;5083427;28;20027;-81
2022/08/27 01:12:42;;;;;;;13.57;7.25;;;;;;;;;;5042697;28;20018;-85
2022/08/27 01:15:10;;;;;;;14.00;7.35;;;;;;;;;;5067047;28;20047;-84
2022/08/27 01:17:38;;;;;;;17.17;7.13;;;;;;;;;;5062034;28;20040;-75
2022/08/27 01:20:08;;;;;;;19.15;7.25;;;;;;;;;;5067754;28;20021;-79
2022/08/27 01:22:52;;;;;;;15.32;7.32;;;;;;;;;;5065625;28;20039;-85
2022/08/27 01:25:20;;;;;;;13.95;7.40;;;;;;;;;;5070827;28;20032;-86
2022/08/27 01:27:46;;;;;;;16.45;7.63;;;;;;;;;;5060823;28;20040;-75
2022/08/27 01:30:15;;;;;;;15.90;7.90;;;;;;;;;;5067074;28;20040;-83
2022/08/27 01:32:42;;;;;;;15.18;8.23;;;;;;;;;;5035511;28;20463;-76
2022/08/27 01:35:09;;;;;;;14.90;7.75;;;;;;;;;;5062545;28;20032;-81
2022/08/27 01:37:36;;;;;;;21.02;8.40;;;;;;;;;;5071171;28;20386;-84
2022/08/27 01:40:02;;;;;;;17.10;7.32;;;;;;;;;;5053207;28;20035;-76
2022/08/27 01:42:37;;;;;;;13.80;7.22;;;;;;;;;;5073146;28;20034;-75
2022/08/27 01:45:06;;;;;;;11.90;7.63;;;;;;;;;;5055236;28;20032;-84
2022/08/27 01:47:32;;;;;;;19.00;7.38;;;;;;;;;;5051694;28;20034;-83
2022/08/27 01:49:59;;;;;;;15.70;7.57;;;;;;;;;;5043362;28;20162;-80
2022/08/27 01:52:26;;;;;;;13.20;7.55;;;;;;;;;;5057051;28;20041;-76
2022/08/27 01:54:53;;;;;;;17.45;7.90;;;;;;;;;;5081997;28;20017;-82
2022/08/27 01:57:20;;;;;;;13.30;7.63;;;;;;;;;;5053703;28;20023;-77
2022/08/27 01:59:46;;;;;;;16.58;7.82;;;;;;;;;;5050429;28;20107;-84
2022/08/27 02:02:14;;;;;;;17.45;7.20;;;;;;;;;;5074301;28;20413;-84
2022/08/27 02:04:40;;;;;;;18.83;7.80;;;;;;;;;;5091381;28;20020;-78
2022/08/27 02:07:06;;;;;;;14.40;7.68;;;;;;;;;;5093024;28;20070;-80
2022/08/27 02:09:33;;;;;;;14.10;7.55;;;;;;;;;;5089786;28;20039;-77
2022/08/27 02:11:59;;;;;;;15.52;7.47;;;;;;;;;;5092476;28;20056;-83
2022/08/27 02:17:01;;;;;;;13.77;7.28;;;;;;;;;;5039920;28;20060;-92
2022/08/27 02:19:27;;;;;;;16.20;7.95;;;;;;;;;;5011265;28;20472;-90
2022/08/27 02:21:53;;;;;;;15.93;7.57;;;;;;;;;;5014706;28;20491;-91
2022/08/27 02:24:20;;;;;;;15.52;7.35;;;;;;;;;;5032857;28;20026;-89
2022/08/27 02:29:34;;;;;;;9.25;6.85;;;;;;;;;;5320028;23;20124;-89
2022/08/27 02:32:00;;;;;;;14.98;7.35;;;;;;;;;;5028541;28;20029;-90
2022/08/27 02:34:27;;;;;;;14.82;7.72;;;;;;;;;;5008926;28;20073;-90
2022/08/27 02:36:53;;;;;;;15.45;7.93;;;;;;;;;;5018319;28;20033;-91
2022/08/27 02:42:23;;;;;;;15.67;8.20;;;;;;;;;;5249859;23;20131;-90
2022/08/27 02:44:49;;;;;;;15.27;7.93;;;;;;;;;;4958765;28;20019;-86
2022/08/27 02:47:15;;;;;;;17.83;7.85;;;;;;;;;;4971394;28;20035;-86
2022/08/27 02:49:43;;;;;;;14.25;7.75;;;;;;;;;;4973256;28;20027;-89
2022/08/27 02:52:09;;;;;;;17.35;7.80;;;;;;;;;;4963483;28;20018;-88
2022/08/27 02:54:35;;;;;;;17.17;8.13;;;;;;;;;;4958156;28;20023;-89
2022/08/27 02:57:01;;;;;;;20.02;7.97;;;;;;;;;;4960851;28;20046;-91
2022/08/27 02:59:27;;;;;;;18.70;8.18;;;;;;;;;;4956553;28;20023;-79
2022/08/27 03:01:53;;;;;;;16.30;7.53;;;;;;;;;;4959161;28;20101;-83
2022/08/27 03:04:21;;;;;;;13.45;8.15;;;;;;;;;;4956675;28;20089;-90
2022/08/27 03:06:47;;;;;;;15.75;8.02;;;;;;;;;;4964106;28;20464;-87
2022/08/27 03:09:13;;;;;;;20.73;8.25;;;;;;;;;;4966709;28;20093;-82
2022/08/27 03:11:40;;;;;;;15.15;8.52;;;;;;;;;;4966753;28;20023;-84
2022/08/27 03:14:06;;;;;;;14.63;8.15;;;;;;;;;;4961012;29;20042;-90
2022/08/27 03:16:36;;;;;;;19.50;8.15;;;;;;;;;;4958032;28;20487;-81
2022/08/27 03:19:02;;;;;;;16.58;7.90;;;;;;;;;;4957774;28;20031;-86
2022/08/27 03:21:28;;;;;;;17.90;8.35;;;;;;;;;;4960027;28;20029;-86
2022/08/27 03:23:54;;;;;;;15.57;8.27;;;;;;;;;;4953195;28;20477;-81
2022/08/27 03:26:22;;;;;;;13.23;7.88;;;;;;;;;;4957543;28;20036;-81
2022/08/27 03:28:48;;;;;;;15.10;7.45;;;;;;;;;;4957537;28;20091;-91
2022/08/27 03:31:19;;;;;;;11.18;7.60;;;;;;;;;;4961858;28;20030;-88
2022/08/27 03:33:45;;;;;;;16.55;7.80;;;;;;;;;;4955016;28;20028;-86
2022/08/27 03:36:11;;;;;;;15.35;7.43;;;;;;;;;;4962684;28;20031;-87
2022/08/27 03:38:38;;;;;;;14.00;7.65;;;;;;;;;;4963906;28;20035;-83
2022/08/27 03:41:05;;;;;;;19.00;7.82;;;;;;;;;;4955222;28;20081;-89
2022/08/27 03:43:31;;;;;;;18.08;7.95;;;;;;;;;;4978291;28;20047;-87
2022/08/27 03:45:57;;;;;;;20.40;7.30;;;;;;;;;;4995309;28;20471;-87
2022/08/27 03:48:23;;;;;;;16.52;8.18;;;;;;;;;;4995865;28;20030;-90
2022/08/27 03:50:50;;;;;;;23.52;7.68;;;;;;;;;;4994601;28;20491;-84
2022/08/27 03:53:19;;;;;;;14.23;7.50;;;;;;;;;;4995686;28;20027;-82
2022/08/27 03:55:45;;;;;;;13.10;6.90;;;;;;;;;;4977604;28;20026;-85
2022/08/27 03:58:15;;;;;;;17.48;7.00;;;;;;;;;;4994691;28;20042;-86
2022/08/27 04:00:41;;;;;;;13.70;7.40;;;;;;;;;;4993217;28;20038;-84
2022/08/27 04:03:09;;;;;;;12.43;7.18;;;;;;;;;;4995392;28;20034;-88
2022/08/27 04:05:38;;;;;;;21.08;7.70;;;;;;;;;;4995359;28;20026;-84
2022/08/27 04:08:05;;;;;;;14.20;6.80;;;;;;;;;;4995696;28;20105;-90
2022/08/27 04:10:32;;;;;;;13.95;7.15;;;;;;;;;;4994783;28;20026;-81
2022/08/27 04:12:58;;;;;;;16.75;6.47;;;;;;;;;;4982007;28;20034;-90
2022/08/27 04:15:25;;;;;;;16.60;6.65;;;;;;;;;;4976901;28;20054;-87
2022/08/27 04:17:51;;;;;;;10.50;6.25;;;;;;;;;;4994057;28;20151;-89
2022/08/27 04:20:19;;;;;;;16.90;6.07;;;;;;;;;;4994830;28;20045;-89
2022/08/27 04:22:45;;;;;;;17.65;5.80;;;;;;;;;;4995083;28;20026;-89
2022/08/27 04:25:11;;;;;;;15.18;6.03;;;;;;;;;;4995440;28;20018;-86
2022/08/27 04:27:37;;;;;;;16.05;5.57;;;;;;;;;;4995055;28;20105;-89
2022/08/27 04:30:05;;;;;;;11.23;5.75;;;;;;;;;;4992742;28;20041;-89
2022/08/27 04:32:31;;;;;;;19.75;6.15;;;;;;;;;;4975097;28;20045;-85
2022/08/27 04:34:59;;;;;;;14.25;6.07;;;;;;;;;;4993397;28;20022;-86
2022/08/27 04:37:29;;;;;;;14.38;5.60;;;;;;;;;;4994214;28;20135;-85
2022/08/27 04:39:55;;;;;;;13.32;5.53;;;;;;;;;;4992656;28;20026;-88
2022/08/27 04:42:21;;;;;;;15.48;5.43;;;;;;;;;;4992480;28;20054;-86
2022/08/27 04:44:48;;;;;;;13.90;5.30;;;;;;;;;;4994513;28;20029;-88
2022/08/27 04:47:15;;;;;;;11.02;5.38;;;;;;;;;;4995170;28;20547;-87
2022/08/27 04:49:42;;;;;;;11.32;5.28;;;;;;;;;;4994644;28;20030;-89
2022/08/27 04:52:08;;;;;;;18.08;5.55;;;;;;;;;;4992996;28;20510;-90
2022/08/27 04:54:35;;;;;;;16.20;5.25;;;;;;;;;;4987357;28;20093;-91
2022/08/27 04:57:02;;;;;;;12.82;4.95;;;;;;;;;;4996739;28;20043;-87
2022/08/27 04:59:28;;;;;;;22.20;6.25;;;;;;;;;;4986005;28;20038;-89
2022/08/27 05:01:54;;;;;;;12.82;4.72;;;;;;;;;;4986734;28;20027;-85
2022/08/27 05:04:20;;;;;;;15.25;5.32;;;;;;;;;;4987466;28;20034;-81
2022/08/27 05:06:49;;;;;;;17.08;5.35;;;;;;;;;;4982422;28;20050;-85
2022/08/27 05:09:16;;;;;;;13.77;5.22;;;;;;;;;;4987450;28;20081;-80
2022/08/27 05:11:44;;;;;;;15.70;5.78;;;;;;;;;;5004109;28;20093;-82
2022/08/27 05:14:13;;;;;;;17.10;6.30;;;;;;;;;;4996746;28;20030;-84
2022/08/27 05:16:39;;;;;;;21.17;5.53;;;;;;;;;;4998840;28;20084;-76
2022/08/27 05:19:07;;;;;;;16.15;5.70;;;;;;;;;;4998449;28;20038;-81
2022/08/27 05:21:35;;;;;;;18.88;5.63;;;;;;;;;;4978497;28;20045;-73
2022/08/27 05:24:02;;;;;;;22.02;5.47;;;;;;;;;;4996404;28;20034;-81
2022/08/27 05:26:28;;;;;;;19.23;5.75;;;;;;;;;;4998288;28;20479;-88
2022/08/27 05:28:54;;;;;;;13.02;5.65;;;;;;;;;;4998602;28;20030;-78
2022/08/27 05:31:21;;;;;;;15.88;5.57;;;;;;;;;;4996415;28;20029;-78
2022/08/27 05:33:47;;;;;;;17.40;5.35;;;;;;;;;;4997810;28;20084;-75
2022/08/27 05:36:17;;;;;;;16.80;5.25;;;;;;;;;;5002271;28;20026;-76
2022/08/27 05:38:43;;;;;;;13.85;5.40;;;;;;;;;;4998574;28;20034;-76
2022/08/27 05:41:14;;;;;;;15.10;5.38;;;;;;;;;;4984341;28;20053;-74
2022/08/27 05:43:41;;;;;;;13.15;5.63;;;;;;;;;;4996247;28;20042;-73
2022/08/27 05:46:11;;;;;;;11.60;6.07;;;;;;;;;;4993867;28;20054;-74
2022/08/27 05:48:38;;;;;;;15.05;5.57;;;;;;;;;;4995867;28;20357;-74
2022/08/27 05:51:13;;;;;;;16.15;5.80;;;;;;;;;;4996855;28;20053;-73
2022/08/27 05:53:39;;;;;;;21.83;5.93;;;;;;;;;;4986079;28;20025;-81
2022/08/27 05:56:11;;;;;;;10.57;5.75;;;;;;;;;;4992257;28;20056;-78
2022/08/27 06:01:22;;;;;;;14.77;6.57;;;;;;;;;;4994018;28;20131;-77
2022/08/27 06:03:48;;;;;;;15.60;6.20;;;;;;;;;;5002654;28;20104;-82
2022/08/27 06:06:14;;;;;;;18.80;6.45;;;;;;;;;;4989862;28;20030;-83
2022/08/27 06:08:40;;;;;;;12.82;5.88;;;;;;;;;;4982230;28;20023;-82
2022/08/27 06:11:07;;;;;;;13.23;6.40;;;;;;;;;;4977114;28;20030;-77
2022/08/27 06:13:34;;;;;;;10.02;5.90;;;;;;;;;;4997214;28;20025;-79
2022/08/27 06:16:06;;;;;;;12.10;6.53;;;;;;;;;;5002569;28;20030;-75
2022/08/27 06:18:32;;;;;;;13.73;7.28;;;;;;;;;;4997392;28;20030;-76
2022/08/27 06:20:59;;;;;;;16.75;8.52;;;;;;;;;;4992622;28;20049;-76
2022/08/27 06:23:26;;;;;;;15.25;8.10;;;;;;;;;;4997979;28;20026;-80
2022/08/27 06:25:52;;;;;;;18.58;6.78;;;;;;;;;;5006221;28;20022;-77
2022/08/27 06:28:22;;;;;;;16.35;6.25;;;;;;;;;;4982336;28;20476;-78
2022/08/27 06:30:48;;;;;;;17.52;6.75;;;;;;;;;;4990327;28;20014;-82
2022/08/27 06:33:14;;;;;;;14.38;6.10;;;;;;;;;;5007164;28;20499;-78
2022/08/27 06:35:41;;;;;;;13.95;5.80;;;;;;;;;;5009839;28;20026;-81
2022/08/27 06:38:07;;;;;;;18.92;5.47;;;;;;;;;;5002623;28;20056;-80
2022/08/27 06:40:33;;;;;;;13.18;6.07;;;;;;;;;;5001231;28;20050;-84
2022/08/27 06:42:59;;;;;;;18.17;6.13;;;;;;;;;;4999347;28;20133;-82
2022/08/27 06:45:25;;;;;;;16.98;6.13;;;;;;;;;;4997079;28;20054;-86
2022/08/27 06:47:51;;;;;;;12.65;6.50;;;;;;;;;;4997518;28;20387;-77
2022/08/27 06:50:19;;;;;;;12.73;6.35;;;;;;;;;;4992280;28;20109;-81
2022/08/27 06:52:46;;;;;;;14.50;6.70;;;;;;;;;;4997966;28;20030;-77
2022/08/27 06:55:12;;;;;;;17.60;7.22;;;;;;;;;;4998858;28;20041;-76
2022/08/27 06:57:38;;;;;;;17.52;6.25;;;;;;;;;;5001248;28;20053;-75
2022/08/27 07:00:07;;;;;;;14.85;6.75;;;;;;;;;;5000267;28;20031;-76
2022/08/27 07:02:33;;;;;;;11.15;6.13;;;;;;;;;;4998024;28;20093;-77
2022/08/27 07:04:59;;;;;;;13.18;6.45;;;;;;;;;;5000662;28;20035;-74
2022/08/27 07:07:26;;;;;;;14.52;6.22;;;;;;;;;;4997420;28;20030;-77
2022/08/27 07:09:52;;;;;;;17.02;7.55;;;;;;;;;;4995568;28;20034;-74
2022/08/27 07:12:20;;;;;;;16.63;6.95;;;;;;;;;;4994124;28;20025;-73
2022/08/27 07:14:46;;;;;;;15.98;6.90;;;;;;;;;;4992346;28;20034;-76
2022/08/27 07:17:12;;;;;;;31.67;7.53;;;;;;;;;;4999975;28;20573;-74
2022/08/27 07:19:38;;;;;;;17.38;7.28;;;;;;;;;;4997611;28;20085;-72
2022/08/27 07:22:05;;;;;;;21.75;7.85;;;;;;;;;;4996275;28;20045;-77
2022/08/27 07:24:31;;;;;;;25.55;7.97;;;;;;;;;;4994044;28;20026;-73
2022/08/27 07:26:57;;;;;;;25.50;8.07;;;;;;;;;;5002472;28;20034;-73
2022/08/27 07:29:23;;;;;;;18.23;6.88;;;;;;;;;;4994999;28;20247;-77
2022/08/27 07:31:50;;;;;;;33.13;10.02;;;;;;;;;;4982314;28;20164;-76
2022/08/27 07:34:16;;;;;;;30.30;9.63;;;;;;;;;;4997127;28;20022;-80
2022/08/27 07:36:42;;;;;;;29.33;8.98;;;;;;;;;;4989081;28;20029;-78
2022/08/27 07:39:08;;;;;;;22.42;6.68;;;;;;;;;;4973399;28;20389;-75
2022/08/27 07:44:24;;;;;;;15.38;6.47;;;;;;;;;;4994762;28;20046;-76
2022/08/27 07:44:24;;;;;;;18.13;6.63;;;;;;;;;;4991427;28;20399;-78
2022/08/27 07:46:50;;;;;;;18.15;6.20;;;;;;;;;;4989745;28;20050;-78
2022/08/27 07:49:17;;;;;;;21.15;6.32;;;;;;;;;;4988358;28;20525;-77
2022/08/27 07:51:44;;;;;;;13.93;6.32;;;;;;;;;;4975720;28;20816;-80
2022/08/27 07:54:11;;;;;;;15.98;5.85;;;;;;;;;;4988334;28;20470;-79
2022/08/27 07:56:37;;;;;;;17.13;6.07;;;;;;;;;;4973665;28;20023;-76
2022/08/27 07:59:03;;;;;;;22.48;7.55;;;;;;;;;;4984262;28;20031;-75
2022/08/27 08:01:29;;;;;;;12.32;5.65;;;;;;;;;;4974451;28;20365;-83
2022/08/27 08:03:55;;;;;;;13.68;5.93;;;;;;;;;;4990830;28;20022;-79
2022/08/27 08:06:21;;;;;;;15.68;6.60;;;;;;;;;;4984659;28;20025;-83
2022/08/27 08:08:48;;;;;;;16.48;6.00;;;;;;;;;;4981806;28;20042;-82
2022/08/27 08:11:15;;;;;;;18.60;6.43;;;;;;;;;;4992544;28;20431;-77
2022/08/27 08:13:42;;;;;;;16.17;5.90;;;;;;;;;;4992078;28;20034;-75
2022/08/27 08:16:09;;;;;;;20.67;5.75;;;;;;;;;;4995342;28;20389;-78
2022/08/27 08:18:35;;;;;;;15.45;5.60;;;;;;;;;;4994232;28;20129;-79
2022/08/27 08:21:03;;;;;;;15.43;5.55;;;;;;;;;;5003559;28;20049;-74
2022/08/27 08:23:31;;;;;;;17.15;6.07;;;;;;;;;;4992187;28;20030;-71
2022/08/27 08:25:57;;;;;;;20.80;5.28;;;;;;;;;;4982510;28;20484;-70
2022/08/27 08:28:24;;;;;;;18.15;6.30;;;;;;;;;;4993612;28;20040;-71
2022/08/27 08:30:51;;;;;;;15.60;5.63;;;;;;;;;;4999331;28;20025;-72
2022/08/27 08:33:17;;;;;;;14.50;6.57;;;;;;;;;;4993327;28;20030;-73
2022/08/27 08:35:43;;;;;;;17.27;5.90;;;;;;;;;;4992120;28;20030;-71
2022/08/27 08:38:09;;;;;;;17.27;5.63;;;;;;;;;;4996750;28;20045;-75
2022/08/27 08:40:40;;;;;;;18.10;6.15;;;;;;;;;;4994214;28;20026;-71
2022/08/27 08:43:09;;;;;;;14.23;5.10;;;;;;;;;;4992915;28;20082;-75
2022/08/27 08:45:40;;;;;;;15.48;5.63;;;;;;;;;;4997066;28;20329;-76
2022/08/27 08:48:09;;;;;;;14.32;4.55;;;;;;;;;;4998960;28;20095;-73
2022/08/27 08:50:38;;;;;;;11.90;5.20;;;;;;;;;;4993920;28;20077;-75
2022/08/27 08:53:07;;;;;;;10.50;4.63;;;;;;;;;;4969231;28;20039;-78
2022/08/27 08:55:40;;;;;;;15.23;4.78;;;;;;;;;;4993063;28;20035;-84
2022/08/27 08:58:15;;;;;;;11.98;4.60;;;;;;;;;;4991022;28;20042;-73
2022/08/27 09:00:43;;;;;;;15.10;5.00;;;;;;;;;;4997124;28;20034;-73
2022/08/27 09:03:11;;;;;;;11.80;4.75;;;;;;;;;;4993711;28;20039;-81
2022/08/27 09:05:40;;;;;;;15.75;4.82;;;;;;;;;;4992140;28;20025;-79
2022/08/27 09:08:14;;;;;;;15.00;4.95;;;;;;;;;;4985284;28;20033;-79
2022/08/27 09:11:07;;;;;;;19.80;5.30;;;;;;;;;;4995454;28;20022;-73
2022/08/27 09:13:37;;;;;;;12.50;4.70;;;;;;;;;;4991344;28;20041;-77
2022/08/27 09:16:04;;;;;;;14.02;4.88;;;;;;;;;;4997600;28;20074;-75
2022/08/27 09:18:34;;;;;;;15.02;5.00;;;;;;;;;;4980026;28;20446;-72
2022/08/27 09:21:20;;;;;;;15.07;4.80;;;;;;;;;;4984325;28;20051;-73
2022/08/27 09:23:49;;;;;;;16.15;5.63;;;;;;;;;;4999782;28;20095;-79
2022/08/27 09:26:19;;;;;;;17.10;4.88;;;;;;;;;;4981616;28;20035;-76
2022/08/27 09:31:35;;;;;;;11.95;4.95;;;;;;;;;;4995941;28;20037;-70
2022/08/27 09:34:04;;;;;;;13.70;5.03;;;;;;;;;;4990601;28;20113;-70
2022/08/27 09:36:33;;;;;;;28.38;5.97;;;;;;;;;;4988365;28;20033;-69
2022/08/27 09:39:03;;;;;;;15.23;4.97;;;;;;;;;;5000672;28;20034;-69
2022/08/27 09:41:31;;;;;;;14.68;5.40;;;;;;;;;;4992705;28;20038;-82
2022/08/27 09:44:02;;;;;;;19.27;6.20;;;;;;;;;;4997292;28;20121;-81
2022/08/27 09:46:28;;;;;;;25.45;6.32;;;;;;;;;;4977197;28;20022;-69
2022/08/27 09:48:55;;;;;;;14.45;5.40;;;;;;;;;;4988011;28;20057;-72
2022/08/27 09:51:29;;;;;;;28.63;7.43;;;;;;;;;;4997673;28;20083;-70
2022/08/27 09:53:58;;;;;;;16.30;5.10;;;;;;;;;;5005465;28;20029;-71
2022/08/27 09:56:32;;;;;;;19.73;5.50;;;;;;;;;;4987631;28;20492;-69
2022/08/27 09:59:06;;;;;;;17.88;5.53;;;;;;;;;;4995505;28;20484;-69
2022/08/27 10:01:34;;;;;;;16.75;5.57;;;;;;;;;;4992287;28;20034;-69
2022/08/27 10:04:27;;;;;;;25.95;6.30;;;;;;;;;;4991295;28;20050;-69
2022/08/27 10:06:53;;;;;;;20.35;6.13;;;;;;;;;;4987016;28;20511;-71
2022/08/27 10:09:26;;;;;;;20.48;6.32;;;;;;;;;;4992535;28;20030;-69
2022/08/27 10:12:07;;;;;;;23.35;5.65;;;;;;;;;;4993056;28;20073;-75
2022/08/27 10:15:05;;;;;;;24.15;6.68;;;;;;;;;;4992606;28;20038;-73
2022/08/27 10:17:45;;;;;;;18.77;5.72;;;;;;;;;;4875630;29;20162;-70
2022/08/27 10:20:25;;;;;;;16.67;5.32;;;;;;;;;;4876430;29;20059;-71
2022/08/27 10:22:58;;;;;;;47.75;8.63;;;;;;;;;;4876527;29;20029;-71
2022/08/27 10:25:35;;;;;;;15.80;5.47;;;;;;;;;;4876271;29;20069;-72
2022/08/27 10:28:20;;;;;;;15.52;5.60;;;;;;;;;;4877923;29;20045;-70
2022/08/27 10:30:47;;;;;;;10.05;4.50;;;;;;;;;;4864560;29;20033;-69
2022/08/27 10:33:17;;;;;;;59.60;8.93;;;;;;;;;;4875734;29;20045;-69
2022/08/27 10:35:43;;;;;;;695.03;53.30;;;;;;;;;;4876384;29;20081;-71
2022/08/27 10:38:47;;;;;;;226.65;20.33;;;;;;;;;;4875228;29;20041;-72
2022/08/27 10:41:32;;;;;;;15.93;5.35;;;;;;;;;;4870655;29;20105;-71
2022/08/27 10:44:18;;;;;;;34.20;6.32;;;;;;;;;;4875721;29;20082;-70
2022/08/27 10:46:59;;;;;;;26.38;5.22;;;;;;;;;;4876075;29;20049;-70
2022/08/27 10:49:43;;;;;;;22.35;6.10;;;;;;;;;;4874904;29;20141;-70
2022/08/27 10:52:24;;;;;;;17.70;6.18;;;;;;;;;;4886937;28;20082;-70
2022/08/27 10:55:11;;;;;;;101.18;11.68;;;;;;;;;;4992851;28;20076;-68
2022/08/27 10:58:01;;;;;;;39.47;7.72;;;;;;;;;;4992262;28;20555;-70
2022/08/27 11:00:32;;;;;;;16.20;4.63;;;;;;;;;;4993745;28;20030;-74
2022/08/27 11:03:06;;;;;;;23.15;5.95;;;;;;;;;;4995340;28;20019;-72
2022/08/27 11:05:38;;;;;;;13.88;4.65;;;;;;;;;;4996124;28;20040;-74
2022/08/27 11:08:22;;;;;;;20.73;5.43;;;;;;;;;;4992764;28;20015;-69
2022/08/27 11:10:51;;;;;;;26.77;6.28;;;;;;;;;;4995812;28;20043;-69
2022/08/27 11:13:23;;;;;;;26.38;6.43;;;;;;;;;;4995062;28;20448;-76
2022/08/27 11:15:51;;;;;;;41.03;6.80;;;;;;;;;;4995528;28;20029;-71
2022/08/27 11:18:18;;;;;;;34.00;6.88;;;;;;;;;;4995516;28;20045;-74
2022/08/27 11:20:53;;;;;;;15.23;5.10;;;;;;;;;;4995671;28;20496;-69
2022/08/27 11:23:39;;;;;;;23.05;5.57;;;;;;;;;;5002877;28;20026;-76
2022/08/27 11:26:05;;;;;;;14.73;4.95;;;;;;;;;;4977807;28;20476;-76
2022/08/27 11:28:51;;;;;;;13.05;5.30;;;;;;;;;;4992901;28;20033;-70
2022/08/27 11:31:25;;;;;;;58.45;10.15;;;;;;;;;;4995505;28;20104;-73
2022/08/27 11:33:52;;;;;;;71.55;11.38;;;;;;;;;;4993725;28;20028;-73
2022/08/27 11:36:47;;;;;;;22.95;6.93;;;;;;;;;;4993211;28;20030;-73
2022/08/27 11:39:19;;;;;;;17.98;5.93;;;;;;;;;;4871878;29;20064;-68
2022/08/27 11:42:03;;;;;;;12.60;5.95;;;;;;;;;;4885011;29;21249;-77
2022/08/27 11:44:29;;;;;;;14.05;5.30;;;;;;;;;;4862701;29;20061;-69
2022/08/27 11:47:18;;;;;;;13.98;5.53;;;;;;;;;;4878256;29;20125;-71
2022/08/27 11:49:49;;;;;;;15.68;4.90;;;;;;;;;;4877130;29;20049;-72
2022/08/27 11:52:41;;;;;;;11.00;4.60;;;;;;;;;;4874978;29;20112;-71
2022/08/27 11:55:11;;;;;;;14.43;4.90;;;;;;;;;;4875498;29;20415;-71
2022/08/27 11:57:39;;;;;;;11.77;4.78;;;;;;;;;;4878557;29;20373;-79
2022/08/27 12:00:25;;;;;;;13.95;4.90;;;;;;;;;;4877873;29;20072;-80
2022/08/27 12:02:57;;;;;;;10.52;4.65;;;;;;;;;;4861919;29;20037;-70
2022/08/27 12:05:32;;;;;;;13.40;4.67;;;;;;;;;;4877991;29;20033;-72
2022/08/27 12:07:58;;;;;;;15.45;6.43;;;;;;;;;;4885708;29;20230;-72
2022/08/27 12:10:37;;;;;;;15.10;4.78;;;;;;;;;;4878110;29;20033;-72
2022/08/27 12:13:11;;;;;;;19.83;4.85;;;;;;;;;;4879721;29;20041;-72
2022/08/27 12:15:47;;;;;;;13.82;4.90;;;;;;;;;;4930211;28;20049;-71
2022/08/27 12:18:32;;;;;;;14.57;4.65;;;;;;;;;;4986180;28;20538;-72
2022/08/27 12:20:58;;;;;;;10.43;5.00;;;;;;;;;;4994471;28;20101;-73
2022/08/27 12:23:40;;;;;;;17.92;5.43;;;;;;;;;;4976751;28;20026;-72
2022/08/27 12:26:18;;;;;;;16.73;5.70;;;;;;;;;;4994726;28;20034;-72
2022/08/27 12:28:44;;;;;;;13.77;5.43;;;;;;;;;;4994220;28;20026;-70
2022/08/27 12:31:10;;;;;;;9.93;4.70;;;;;;;;;;4992744;28;20839;-72
2022/08/27 12:33:41;;;;;;;14.93;5.60;;;;;;;;;;4994378;28;20033;-72
2022/08/27 12:36:15;;;;;;;15.75;6.68;;;;;;;;;;4994463;28;20033;-72
2022/08/27 12:38:44;;;;;;;12.98;5.53;;;;;;;;;;4993865;28;20034;-73
2022/08/27 12:41:11;;;;;;;12.35;5.07;;;;;;;;;;4994165;28;20038;-71
2022/08/27 12:43:42;;;;;;;9.23;5.30;;;;;;;;;;4991697;28;20058;-71
2022/08/27 12:46:13;;;;;;;9.82;5.10;;;;;;;;;;4994312;28;20102;-72
2022/08/27 12:48:43;;;;;;;9.27;4.97;;;;;;;;;;4993086;28;20057;-71
2022/08/27 12:51:14;;;;;;;10.35;4.90;;;;;;;;;;4994199;28;20058;-73
2022/08/27 12:53:42;;;;;;;13.63;4.60;;;;;;;;;;4993775;28;20026;-73
2022/08/27 12:56:26;;;;;;;19.88;5.53;;;;;;;;;;4993965;28;20507;-73
2022/08/27 12:59:11;;;;;;;12.35;5.18;;;;;;;;;;4993270;28;20078;-73
2022/08/27 13:01:56;;;;;;;17.30;4.82;;;;;;;;;;4990063;28;20093;-72
2022/08/27 13:04:25;;;;;;;17.92;5.35;;;;;;;;;;4983579;28;20395;-70
2022/08/27 13:06:51;;;;;;;19.25;5.45;;;;;;;;;;4990394;28;20492;-70
2022/08/27 13:09:24;;;;;;;35.00;6.25;;;;;;;;;;4989933;28;20041;-70
2022/08/27 13:11:55;;;;;;;12.38;4.70;;;;;;;;;;4990346;28;20076;-71
2022/08/27 13:14:22;;;;;;;43.60;33.15;;;;;;;;;;4992067;28;20034;-74
2022/08/27 13:16:52;;;;;;;16.15;6.43;;;;;;;;;;4992510;28;20027;-76
2022/08/27 13:19:21;;;;;;;58.67;9.65;;;;;;;;;;4990001;28;20034;-76
2022/08/27 13:21:49;;;;;;;20.42;5.28;;;;;;;;;;4991149;28;20022;-71
2022/08/27 13:24:19;;;;;;;27.75;6.20;;;;;;;;;;4989132;28;20245;-75
2022/08/27 13:26:47;;;;;;;22.08;5.85;;;;;;;;;;4991611;28;20018;-73
2022/08/27 13:29:14;;;;;;;18.70;5.82;;;;;;;;;;4990352;28;20030;-81
2022/08/27 13:31:40;;;;;;;12.98;4.75;;;;;;;;;;4987879;28;20026;-73
2022/08/27 13:34:06;;;;;;;9.82;4.43;;;;;;;;;;4990515;28;20127;-74
2022/08/27 13:36:37;;;;;;;24.25;5.88;;;;;;;;;;4993006;28;20030;-71
2022/08/27 13:39:04;;;;;;;25.02;5.18;;;;;;;;;;4979723;28;20062;-72
2022/08/27 13:41:32;;;;;;;16.77;4.85;;;;;;;;;;4992337;28;20022;-70
2022/08/27 13:44:05;;;;;;;15.48;5.70;;;;;;;;;;4992513;28;20407;-71
2022/08/27 13:46:32;;;;;;;19.73;4.63;;;;;;;;;;4992812;28;20114;-71
2022/08/27 13:48:59;;;;;;;8.07;4.75;;;;;;;;;;4992549;28;20432;-75
2022/08/27 13:51:30;;;;;;;27.40;6.95;;;;;;;;;;4992088;28;20073;-71
2022/08/27 13:54:12;;;;;;;11.57;4.55;;;;;;;;;;4992082;28;20031;-71
2022/08/27 13:56:40;;;;;;;13.73;4.82;;;;;;;;;;4992481;28;20110;-75
2022/08/27 13:59:09;;;;;;;13.50;4.53;;;;;;;;;;4992228;28;20093;-75
2022/08/27 14:01:35;;;;;;;14.90;4.18;;;;;;;;;;4985148;28;20034;-73
2022/08/27 14:04:03;;;;;;;14.02;4.88;;;;;;;;;;4990018;28;20034;-71
2022/08/27 14:06:31;;;;;;;10.68;3.90;;;;;;;;;;4992532;28;20029;-74
2022/08/27 14:08:57;;;;;;;10.55;4.72;;;;;;;;;;4992629;28;20488;-72
2022/08/27 14:11:26;;;;;;;11.98;4.95;;;;;;;;;;4993162;28;20535;-77
2022/08/27 14:13:53;;;;;;;10.98;4.82;;;;;;;;;;4992343;28;20045;-72
2022/08/27 14:16:24;;;;;;;14.55;4.38;;;;;;;;;;4987577;28;20026;-70
2022/08/27 14:18:52;;;;;;;11.88;4.55;;;;;;;;;;4992796;28;20037;-77
2022/08/27 14:21:19;;;;;;;14.52;4.75;;;;;;;;;;4992451;28;20461;-75
2022/08/27 14:23:45;;;;;;;11.43;4.70;;;;;;;;;;4996526;28;20492;-73
2022/08/27 14:26:13;;;;;;;12.38;4.63;;;;;;;;;;4974374;28;20054;-72
2022/08/27 14:28:39;;;;;;;14.10;4.55;;;;;;;;;;4992820;28;20018;-72
2022/08/27 14:31:05;;;;;;;11.45;4.50;;;;;;;;;;4995809;28;20030;-78
2022/08/27 14:33:31;;;;;;;11.40;4.30;;;;;;;;;;4992245;28;20026;-71
2022/08/27 14:35:59;;;;;;;15.90;5.10;;;;;;;;;;4995484;28;20077;-71
2022/08/27 14:38:29;;;;;;;12.77;4.30;;;;;;;;;;4996672;28;20073;-74
2022/08/27 14:40:56;;;;;;;9.32;4.53;;;;;;;;;;4996550;28;20053;-78
2022/08/27 14:43:23;;;;;;;10.60;4.18;;;;;;;;;;4995714;28;20090;-75
2022/08/27 14:45:50;;;;;;;14.40;4.72;;;;;;;;;;4996130;28;20027;-77
2022/08/27 14:48:26;;;;;;;14.38;4.57;;;;;;;;;;4992814;28;20124;-71
2022/08/27 14:50:53;;;;;;;10.70;4.13;;;;;;;;;;4996590;28;20026;-78
2022/08/27 14:53:19;;;;;;;16.35;4.55;;;;;;;;;;4995583;28;20031;-76
2022/08/27 14:55:48;;;;;;;8.45;4.35;;;;;;;;;;4996223;28;20061;-77
2022/08/27 14:58:14;;;;;;;10.07;5.03;;;;;;;;;;4995205;28;20042;-74